Main page
METAR-TAF:

METAR-TAF

Airports :

Matsumoto Airport

Matsumoto, Japan

latitude: 36-10N, longitude: 137-56E, elevation: 668 m

Current weather observation

The report was made 13 hours and 15 minutes ago, at 09:00 UTC
Wind 14 kt from the West/Southwest, varying between Southwest and West
Temperature 5°C
Humidity 48%
Pressure 1014 hPa
Visibility 10 km or more
Few clouds at a height of 3000 ft
showers in vicinity

METAR: RJAF 040900Z 24014KT 220V280 9999 VCSH FEW030 05/M05 Q1014

Time: 07:15 (22:15 UTC)


TAF: missing

Weather observations and forecasts of more than 4000 airports (METAR and TAF reports).

The available stations are represented by yellow and red dots on the map.

Hover mouse over dot to see the name of the station.

Then click to see weather observations and forecasts.

To change the map : click on the green buttons with a black cross to zoom in, on the green button with a dash to zoom out, or on the green arrows for adjacent maps.


METAR-TAF: